MSC Viviana — D5ND7 — position and weather

sailwx.info

Track history (hours):
 
Tides and Currents Weather Stations Pressure Air Temp Water Temp Dewpoint Dewpoint Depression Visibility Wind Speed Wind Dir Waves Ship Positions

MSC Viviana

Last reported at 2017-Dec-17 04:00 UTC. Time now 2017-Dec-17 04:28 UTC.
Position N 52°01' E 003°56'.

Length 400 m; draft 13.3 m.

Type: Cargo ship. MMSI: 636017882.

Date/timePositionNaut miles runAvg speedWind from/ knotsBaromVisibWave heightAir tempDewpointWater temp
2017-Dec-17 04:00N 52°01' E 003°56'5 9.5
2017-Dec-17 03:30N 52°01' E 003°48'3 6.5
2017-Dec-17 03:00N 52°01' E 003°43'3 5.9
2017-Dec-17 02:30N 51°58' E 003°40'2 4.5
2017-Dec-17 02:00N 51°57' E 003°37'3 4.7
2017-Dec-17 01:23N 51°56' E 003°32'3 4.8
2017-Dec-17 00:49N 51°55' E 003°28'2 5.0
2017-Dec-17 00:29N 51°55' E 003°25'2 5.0
2017-Dec-17 00:00N 51°53' E 003°23'6 4.1
2017-Dec-16 22:38N 51°48' E 003°18'1 4.7
2017-Dec-16 22:28N 51°48' E 003°18'4 5.1
2017-Dec-16 21:41N 51°44' E 003°15'2 5.1
2017-Dec-16 21:21N 51°42' E 003°14'2 4.6
2017-Dec-16 21:00N 51°41' E 003°13'510.3
2017-Dec-16 20:30N 51°36' E 003°10'510.9
2017-Dec-16 20:00N 51°31' E 003°06'611.6
2017-Dec-16 19:30N 51°27' E 002°60'4 7.4
2017-Dec-16 19:00N 51°24' E 003°04'611.9
2017-Dec-16 18:30N 51°25' E 003°14'612.5
2017-Dec-16 18:00N 51°25' E 003°24'611.8
2017-Dec-16 17:30N 51°25' E 003°33'4 7.5
2017-Dec-16 17:00N 51°26' E 003°39'611.5
2017-Dec-16 16:30N 51°22' E 003°45'612.5
2017-Dec-16 16:00N 51°22' E 003°55'510.8
2017-Dec-16 15:30N 51°26' E 004°01'510.1
2017-Dec-16 15:00N 51°22' E 004°07'4 7.8
2017-Dec-16 14:30N 51°22' E 004°13'3 6.6
2017-Dec-16 14:00N 51°19' E 004°16'1 3.0
2017-Dec-16 13:31N 51°18' E 004°16'0 0.9
2017-Dec-16 12:59N 51°17' E 004°15'0 0.0
2017-Dec-16 12:29N 51°17' E 004°15'0 0.0
2017-Dec-16 11:59N 51°17' E 004°15'0 0.0
2017-Dec-16 11:29N 51°17' E 004°15'0 0.0
2017-Dec-16 11:00N 51°17' E 004°15'0 0.0
2017-Dec-16 10:30N 51°17' E 004°15'0 0.0
2017-Dec-16 10:00N 51°17' E 004°15'0 0.0
2017-Dec-16 09:30N 51°17' E 004°15'0 0.0
2017-Dec-16 09:00N 51°17' E 004°15'0 0.0
2017-Dec-16 08:30N 51°17' E 004°15'0 0.0
2017-Dec-16 08:00N 51°17' E 004°15'0 0.0
2017-Dec-16 07:30N 51°17' E 004°15'0 0.0
2017-Dec-16 07:00N 51°17' E 004°15'0 0.0
2017-Dec-16 06:30N 51°17' E 004°15'0 0.0
2017-Dec-16 06:00N 51°17' E 004°15'0 0.0
2017-Dec-16 05:30N 51°17' E 004°15'0 0.0
2017-Dec-16 05:00N 51°17' E 004°15'0 0.0
2017-Dec-16 04:30N 51°17' E 004°15'0 0.0
2017-Dec-16 04:00N 51°17' E 004°15'0 0.0
2017-Dec-16 03:30N 51°17' E 004°15'0 0.0
2017-Dec-16 03:00N 51°17' E 004°15'0 0.0
2017-Dec-16 02:30N 51°17' E 004°15'0 0.0
2017-Dec-16 02:00N 51°17' E 004°15'0 0.0
2017-Dec-16 01:30N 51°17' E 004°15'0 0.0
2017-Dec-16 01:00N 51°17' E 004°15'0 0.0
2017-Dec-16 00:30N 51°17' E 004°15'0 0.0
2017-Dec-16 00:00N 51°17' E 004°15'0 0.0
2017-Dec-15 23:30N 51°17' E 004°15'0 0.0
2017-Dec-15 23:00N 51°17' E 004°15'0 0.0
2017-Dec-15 22:30N 51°17' E 004°15'0 0.0
2017-Dec-15 22:00N 51°17' E 004°15'0 0.0
2017-Dec-15 21:30N 51°17' E 004°15'0 0.0
2017-Dec-15 21:00N 51°17' E 004°15'0 0.0
2017-Dec-15 20:30N 51°17' E 004°15'0 0.0
2017-Dec-15 20:00N 51°17' E 004°15'0 0.0
2017-Dec-15 19:30N 51°17' E 004°15'0 0.0
2017-Dec-15 19:00N 51°17' E 004°15'0 0.0
2017-Dec-15 18:30N 51°17' E 004°15'0 0.0
2017-Dec-15 18:00N 51°17' E 004°15'0 0.0
2017-Dec-15 17:30N 51°17' E 004°15'0 0.0
2017-Dec-15 17:00N 51°17' E 004°15'0 0.0
2017-Dec-15 16:30N 51°17' E 004°15'0 0.0
2017-Dec-15 16:00N 51°17' E 004°15'0 0.0
2017-Dec-15 15:30N 51°17' E 004°15'0 0.0
2017-Dec-15 15:00N 51°17' E 004°15'0 0.0
2017-Dec-15 14:30N 51°17' E 004°15'0 0.0
2017-Dec-15 14:00N 51°17' E 004°15'0 0.0
2017-Dec-15 13:30N 51°17' E 004°15'0 0.0
2017-Dec-15 13:00N 51°17' E 004°15'0 0.0
2017-Dec-15 12:30N 51°17' E 004°15'0 0.0
2017-Dec-15 12:00N 51°17' E 004°15'0 0.0
2017-Dec-15 11:30N 51°17' E 004°15'0 0.0
2017-Dec-15 11:00N 51°17' E 004°15'0 0.0
2017-Dec-15 10:30N 51°17' E 004°15'0 0.0
2017-Dec-15 10:00N 51°17' E 004°15'0 0.0
2017-Dec-15 09:30N 51°17' E 004°15'0 0.0
2017-Dec-15 09:00N 51°17' E 004°15'0 0.0
2017-Dec-15 08:30N 51°17' E 004°15'0 0.0
2017-Dec-15 08:00N 51°17' E 004°15'0 0.0
2017-Dec-15 07:30N 51°17' E 004°15'0 0.0
2017-Dec-15 07:00N 51°17' E 004°15'0 0.0
2017-Dec-15 06:30N 51°17' E 004°15'0 0.0
2017-Dec-15 06:00N 51°17' E 004°15'0 0.0
2017-Dec-15 05:30N 51°17' E 004°15'0 0.0
2017-Dec-15 05:00N 51°17' E 004°15'0 0.0
2017-Dec-15 04:30N 51°17' E 004°15'0 0.0
2017-Dec-15 04:00N 51°17' E 004°15'0 0.0
2017-Dec-15 02:30N 51°17' E 004°15'0 0.0
2017-Dec-15 01:00N 51°17' E 004°15'0 0.0
2017-Dec-15 00:30N 51°17' E 004°15'0 0.0
2017-Dec-14 18:30N 51°17' E 004°15'0 0.0
2017-Dec-14 18:00N 51°17' E 004°15'0 0.0
2017-Dec-14 17:30N 51°17' E 004°15'0 0.0
2017-Dec-14 17:00N 51°17' E 004°15'0 0.0
2017-Dec-14 16:30N 51°17' E 004°15'0 0.0
2017-Dec-14 16:00N 51°17' E 004°15'0 0.0
2017-Dec-14 15:00N 51°17' E 004°15'0 0.0
2017-Dec-14 14:30N 51°17' E 004°15'0 0.0
2017-Dec-14 14:00N 51°17' E 004°15'0 0.0
2017-Dec-14 13:30N 51°17' E 004°15'0 0.0
2017-Dec-14 13:00N 51°17' E 004°15'0 0.0
2017-Dec-14 12:30N 51°17' E 004°15'0 0.0
2017-Dec-14 12:00N 51°17' E 004°15'0 0.0
2017-Dec-14 11:30N 51°17' E 004°15'0 0.0
2017-Dec-14 11:00N 51°17' E 004°15'0 0.0
2017-Dec-14 10:30N 51°17' E 004°15'0 0.0
2017-Dec-14 10:00N 51°17' E 004°15'0 0.0
2017-Dec-14 09:30N 51°17' E 004°15'0 0.0
2017-Dec-14 09:00N 51°17' E 004°15'0 0.0
2017-Dec-14 08:30N 51°17' E 004°15'0 0.0
2017-Dec-14 08:00N 51°17' E 004°15'0 0.0
2017-Dec-14 07:30N 51°17' E 004°15'0 0.0
2017-Dec-14 07:00N 51°17' E 004°15'0 0.0
2017-Dec-14 06:30N 51°17' E 004°15'0 0.0
2017-Dec-14 06:00N 51°17' E 004°15'0 0.0
2017-Dec-14 05:30N 51°17' E 004°15'0 0.0
2017-Dec-14 05:00N 51°17' E 004°15'0 0.5
2017-Dec-14 04:30N 51°17' E 004°16'2 4.3
2017-Dec-14 04:00N 51°20' E 004°16'4 9.0
2017-Dec-14 03:30N 51°23' E 004°13'510.8
2017-Dec-14 03:00N 51°22' E 004°04'5 9.9
2017-Dec-14 02:30N 51°26' E 003°59'510.2
2017-Dec-14 02:00N 51°22' E 003°54'5 9.9
2017-Dec-14 01:30N 51°21' E 003°47'5 9.8
2017-Dec-14 01:00N 51°25' E 003°42'4 8.7
2017-Dec-14 00:30N 51°26' E 003°35'3 6.5
2017-Dec-14 00:00N 51°25' E 003°30'611.5
2017-Dec-13 23:30N 51°24' E 003°21'815.2
2017-Dec-13 23:00N 51°24' E 003°09'612.3
2017-Dec-13 22:30N 51°25' E 002°59'510.9
2017-Dec-13 22:01N 51°25' E 002°50'611.6
2017-Dec-13 21:27N 51°22' E 002°42'7 7.9
2017-Dec-13 20:33N 51°22' E 002°30'0 8.0
2017-Dec-13 20:30N 51°22' E 002°30'4 8.4
2017-Dec-13 20:01N 51°20' E 002°23'4 8.4
2017-Dec-13 19:31N 51°19' E 002°17'4 8.9
2017-Dec-13 19:00N 51°19' E 002°10'4 8.0
2017-Dec-13 18:30N 51°21' E 002°04'5 9.4
2017-Dec-13 18:01N 51°25' E 001°59'4 8.2
2017-Dec-13 17:30N 51°28' E 001°55'4 7.8
2017-Dec-13 17:00N 51°30' E 001°50'4 7.7
2017-Dec-13 16:30N 51°34' E 001°47'2 3.4
2017-Dec-13 16:00N 51°35' E 001°47'1 1.2
2017-Dec-13 15:31N 51°35' E 001°47'1 1.4
2017-Dec-13 15:01N 51°35' E 001°46'1 1.5
2017-Dec-13 14:30N 51°34' E 001°45'1 1.4
2017-Dec-13 14:01N 51°33' E 001°45'1 2.2
2017-Dec-13 13:30N 51°34' E 001°46'1 2.9
2017-Dec-13 13:01N 51°35' E 001°48'2 3.3
2017-Dec-13 12:30N 51°36' E 001°49'1 2.2
2017-Dec-13 12:01N 51°38' E 001°49'2 3.3
2017-Dec-13 11:30N 51°36' E 001°47'2 3.3
2017-Dec-13 11:00N 51°35' E 001°45'1 1.6
2017-Dec-13 10:31N 51°35' E 001°44'1 2.6
2017-Dec-13 10:00N 51°35' E 001°46'1 2.7
2017-Dec-13 09:30N 51°36' E 001°48'1 2.6
2017-Dec-13 09:00N 51°36' E 001°50'2 3.0
2017-Dec-13 08:31N 51°37' E 001°52'1 1.6
2017-Dec-13 08:01N 51°36' E 001°52'1 2.0
2017-Dec-13 07:30N 51°36' E 001°50'1 2.0
2017-Dec-13 07:01N 51°35' E 001°49'1 2.0
2017-Dec-13 06:30N 51°34' E 001°48'1 2.2
2017-Dec-13 06:01N 51°34' E 001°47'0 0.5
2017-Dec-13 05:30N 51°34' E 001°47'1 2.5
2017-Dec-13 05:00N 51°35' E 001°48'1 2.3
2017-Dec-13 04:31N 51°36' E 001°49'1 2.4
2017-Dec-13 04:00N 51°37' E 001°49'1 1.3
2017-Dec-13 03:31N 51°37' E 001°48'1 2.1
2017-Dec-13 03:00N 51°36' E 001°48'1 2.1
2017-Dec-13 02:30N 51°35' E 001°47'1 2.1
2017-Dec-13 02:00N 51°34' E 001°47'1 2.5
2017-Dec-13 01:30N 51°35' E 001°46'3 5.0
2017-Dec-13 01:00N 51°38' E 001°45'2 4.4
2017-Dec-13 00:30N 51°40' E 001°45'2 4.5
2017-Dec-13 00:01N 51°42' E 001°45'2 4.7
2017-Dec-12 23:30N 51°44' E 001°44'2 4.8
2017-Dec-12 23:01N 51°47' E 001°44'3 5.1
2017-Dec-12 22:30N 51°49' E 001°43'3 5.2
2017-Dec-12 22:00N 51°51' E 001°40'3 6.1
2017-Dec-12 21:30N 51°51' E 001°36'4 8.7
2017-Dec-12 21:01N 51°56' E 001°33'713.4
2017-Dec-12 20:30N 51°56' E 001°22'3 4.8
2017-Dec-12 19:59N 51°57' E 001°19'0 0.5
2017-Dec-12 19:30N 51°57' E 001°19'0 0.0
2017-Dec-12 19:00N 51°57' E 001°19'0 0.0
2017-Dec-12 18:30N 51°57' E 001°19'0 0.0
2017-Dec-12 18:00N 51°57' E 001°19'0 0.0
2017-Dec-12 17:29N 51°57' E 001°19'0 0.0
2017-Dec-12 16:59N 51°57' E 001°19'0 0.0
2017-Dec-12 16:29N 51°57' E 001°19'0 0.0
2017-Dec-12 15:59N 51°57' E 001°19'0 0.0
2017-Dec-12 15:30N 51°57' E 001°19'0 0.0
2017-Dec-12 14:59N 51°57' E 001°19'0 0.0
2017-Dec-12 14:29N 51°57' E 001°19'0 0.0
2017-Dec-12 13:59N 51°57' E 001°19'0 0.0
2017-Dec-12 13:29N 51°57' E 001°19'0 0.0
2017-Dec-12 13:00N 51°57' E 001°19'0 0.0
2017-Dec-12 12:29N 51°57' E 001°19'0 0.0
2017-Dec-12 11:59N 51°57' E 001°19'0 0.0
2017-Dec-12 11:29N 51°57' E 001°19'0 0.0
2017-Dec-12 10:59N 51°57' E 001°19'0 0.0
2017-Dec-12 10:30N 51°57' E 001°19'0 0.0
2017-Dec-12 09:59N 51°57' E 001°19'0 0.0
2017-Dec-12 09:29N 51°57' E 001°19'0 0.0
2017-Dec-12 09:00N 51°57' E 001°19'0 0.0
2017-Dec-12 08:29N 51°57' E 001°19'0 0.0
2017-Dec-12 07:59N 51°57' E 001°19'0 0.0
2017-Dec-12 07:29N 51°57' E 001°19'0 0.0
2017-Dec-12 06:59N 51°57' E 001°19'0 0.0
2017-Dec-12 06:29N 51°57' E 001°19'0 0.0
2017-Dec-12 05:59N 51°57' E 001°19'0 0.0
2017-Dec-12 05:29N 51°57' E 001°19'0 0.0
2017-Dec-12 04:59N 51°57' E 001°19'0 0.0
2017-Dec-12 04:29N 51°57' E 001°19'0 0.0
2017-Dec-12 03:59N 51°57' E 001°19'0 0.0
2017-Dec-12 03:29N 51°57' E 001°19'0 0.0
2017-Dec-12 02:59N 51°57' E 001°19'0 0.0
2017-Dec-12 02:29N 51°57' E 001°19'0 0.0
2017-Dec-12 01:59N 51°57' E 001°19'0 0.0
2017-Dec-12 01:29N 51°57' E 001°19'0 0.0
2017-Dec-12 00:59N 51°57' E 001°19'0 0.0
2017-Dec-12 00:29N 51°57' E 001°19'0 0.0
2017-Dec-11 23:59N 51°57' E 001°19'0 0.0
2017-Dec-11 23:29N 51°57' E 001°19'0 0.0
2017-Dec-11 22:59N 51°57' E 001°19'0 0.0
2017-Dec-11 22:29N 51°57' E 001°19'0 0.0
2017-Dec-11 21:59N 51°57' E 001°19'0 0.0
2017-Dec-11 21:29N 51°57' E 001°19'0 0.0
2017-Dec-11 20:59N 51°57' E 001°19'0 0.0
2017-Dec-11 20:29N 51°57' E 001°19'0 0.0
2017-Dec-11 19:59N 51°57' E 001°19'0 0.0
2017-Dec-11 19:29N 51°57' E 001°19'0 0.0
2017-Dec-11 18:59N 51°57' E 001°19'0 0.0
2017-Dec-11 18:29N 51°57' E 001°19'0 0.0
2017-Dec-11 17:59N 51°57' E 001°19'0 0.0
2017-Dec-11 17:29N 51°57' E 001°19'0 0.0
2017-Dec-11 16:59N 51°57' E 001°19'0 0.0
2017-Dec-11 16:29N 51°57' E 001°19'0 0.0
2017-Dec-11 15:59N 51°57' E 001°19'0 0.0
2017-Dec-11 15:29N 51°57' E 001°19'0 0.0
2017-Dec-11 14:59N 51°57' E 001°19'0 0.0
2017-Dec-11 14:29N 51°57' E 001°19'0 0.0
2017-Dec-11 13:59N 51°57' E 001°19'0 0.0
2017-Dec-11 13:29N 51°57' E 001°19'0 0.0
2017-Dec-11 12:59N 51°57' E 001°19'0 0.0
2017-Dec-11 12:29N 51°57' E 001°19'0 0.0
2017-Dec-11 11:59N 51°57' E 001°19'0 0.0
2017-Dec-11 11:29N 51°57' E 001°19'0 0.0
2017-Dec-11 10:59N 51°57' E 001°19'0 0.0
2017-Dec-11 10:29N 51°57' E 001°19'0 0.0
2017-Dec-11 09:59N 51°57' E 001°19'0 0.0
2017-Dec-11 09:29N 51°57' E 001°19'0 0.0
2017-Dec-11 08:59N 51°57' E 001°19'0 0.0
2017-Dec-11 08:29N 51°57' E 001°19'0 0.0
2017-Dec-11 07:59N 51°57' E 001°19'0 0.0
2017-Dec-11 07:29N 51°57' E 001°19'0 0.0
2017-Dec-11 06:59N 51°57' E 001°19'0 0.0
2017-Dec-11 06:29N 51°57' E 001°19'0 0.0
2017-Dec-11 05:59N 51°57' E 001°19'0 0.0
2017-Dec-11 05:29N 51°57' E 001°19'0 0.0
2017-Dec-11 04:59N 51°57' E 001°19'0 0.0
2017-Dec-11 04:29N 51°57' E 001°19'0 0.0
2017-Dec-11 03:59N 51°57' E 001°19'0 0.0
2017-Dec-11 03:30N 51°57' E 001°19'0 0.0
2017-Dec-11 03:00N 51°57' E 001°19'0 0.0
2017-Dec-11 02:31N 51°57' E 001°19'0 0.0
2017-Dec-11 02:01N 51°57' E 001°19'0 0.0
2017-Dec-11 01:30N 51°57' E 001°19'0 0.0
2017-Dec-11 01:01N 51°57' E 001°19'0 0.0
2017-Dec-11 00:31N 51°57' E 001°19'0 0.0
2017-Dec-11 00:01N 51°57' E 001°19'0 0.0
2017-Dec-10 23:31N 51°57' E 001°19'0 0.0
2017-Dec-10 23:00N 51°57' E 001°19'0 0.0
2017-Dec-10 22:30N 51°57' E 001°19'0 0.0
2017-Dec-10 22:01N 51°57' E 001°19'0 0.3
2017-Dec-10 21:31N 51°57' E 001°19'1 2.1
2017-Dec-10 21:00N 51°56' E 001°19'611.5
2017-Dec-10 20:31N 51°56' E 001°28'510.0
2017-Dec-10 20:01N 51°52' E 001°34'611.6
2017-Dec-10 19:30N 51°50' E 001°42'2 4.1
2017-Dec-10 19:01N 51°52' E 001°42'3 5.9
2017-Dec-10 18:30N 51°55' E 001°45'4 8.8
2017-Dec-10 18:01N 51°58' E 001°49'2 3.4
2017-Dec-10 17:31N 51°57' E 001°49'2 3.7
2017-Dec-10 17:00N 51°55' E 001°49'2 3.2
2017-Dec-10 16:30N 51°53' E 001°48'2 3.2
2017-Dec-10 16:00N 51°52' E 001°48'2 3.5
2017-Dec-10 15:31N 51°50' E 001°48'2 3.6
2017-Dec-10 15:01N 51°48' E 001°48'2 3.9
2017-Dec-10 14:30N 51°46' E 001°48'2 4.5
2017-Dec-10 14:00N 51°44' E 001°48'4 7.5
2017-Dec-10 13:30N 51°40' E 001°49'2 4.8
2017-Dec-10 13:00N 51°38' E 001°47'3 6.6
2017-Dec-10 12:30N 51°41' E 001°46'3 6.2
2017-Dec-10 12:00N 51°44' E 001°45'3 6.5
2017-Dec-10 11:30N 51°47' E 001°45'3 6.1
2017-Dec-10 11:01N 51°50' E 001°44'2 4.3
2017-Dec-10 10:31N 51°52' E 001°47'4 7.3
2017-Dec-10 10:01N 51°48' E 001°48'3 6.7
2017-Dec-10 09:30N 51°45' E 001°48'4 7.3
2017-Dec-10 09:00N 51°41' E 001°48'4 7.8
2017-Dec-10 08:30N 51°37' E 001°49'4 8.2
2017-Dec-10 08:00N 51°33' E 001°51'4 8.2
2017-Dec-10 07:31N 51°30' E 001°55'5 9.7
2017-Dec-10 07:00N 51°26' E 001°59'5 9.4
2017-Dec-10 06:31N 51°21' E 001°58'612.1
2017-Dec-10 06:00N 51°16' E 001°53'815.0
2017-Dec-10 05:30N 51°10' E 001°45'1020.2
2017-Dec-10 05:01N 51°03' E 001°35'1019.6
2017-Dec-10 04:30N 50°55' E 001°26'1019.4
2017-Dec-10 03:58N 50°45' E 001°22'1117.8
2017-Dec-10 03:20N 50°36' E 001°11'618.8
2017-Dec-10 03:00N 50°33' E 001°02'918.7
2017-Dec-10 02:30N 50°29' E 000°49'1019.1
2017-Dec-10 01:59N 50°27' E 000°34'919.5
2017-Dec-10 01:30N 50°24' E 000°20'1019.8
2017-Dec-10 01:01N 50°22' E 000°05'1019.7
2017-Dec-10 00:30N 50°19' W 000°10'1019.9
2017-Dec-10 00:00N 50°15' W 000°25'1115.7
2017-Dec-09 23:19N 50°11' W 000°41'413.4
2017-Dec-09 23:00N 50°10' W 000°47'4910.6
2017-Dec-09 18:24N 49°58' W 002°00'4 8.5
2017-Dec-09 17:54N 49°56' W 002°06'12 9.2
2017-Dec-09 16:35N 49°53' W 002°25'110.2
2017-Dec-09 16:30N 49°53' W 002°26'510.5
2017-Dec-09 16:01N 49°52' W 002°34'510.9
2017-Dec-09 15:30N 49°51' W 002°42'611.2
2017-Dec-09 15:00N 49°49' W 002°50'611.5
2017-Dec-09 14:30N 49°47' W 002°59'611.8
2017-Dec-09 14:00N 49°44' W 003°06'612.0
2017-Dec-09 13:30N 49°41' W 003°14'8212.6
2017-Dec-09 06:59N 48°59' W 005°03'714.2
2017-Dec-09 06:30N 48°55' W 005°12'713.9
2017-Dec-09 06:00N 48°52' W 005°21'713.9
2017-Dec-09 05:30N 48°48' W 005°30'1314.0
2017-Dec-09 04:34N 48°38' W 005°43'314.5
2017-Dec-09 04:24N 48°36' W 005°45'1015.0
2017-Dec-09 03:43N 48°27' W 005°52'814.6
2017-Dec-09 03:11N 48°20' W 005°57'414.2
2017-Dec-09 02:56N 48°17' W 005°59'52214.8
2017-Dec-07 15:37N 40°02' W 009°50'217.6
2017-Dec-07 15:30N 39°60' W 009°50'1117.8
2017-Dec-07 14:53N 39°49' W 009°49'718.0
2017-Dec-07 14:30N 39°42' W 009°49'918.0
2017-Dec-07 13:59N 39°33' W 009°49'917.8
2017-Dec-07 13:30N 39°24' W 009°50'918.1
2017-Dec-07 13:00N 39°15' W 009°51'918.2
2017-Dec-07 12:30N 39°06' W 009°50'918.0
2017-Dec-07 12:00N 38°57' W 009°51'918.0
2017-Dec-07 11:30N 38°48' W 009°51'918.0
2017-Dec-07 11:00N 38°39' W 009°51'917.5
2017-Dec-07 10:30N 38°30' W 009°49'917.5
2017-Dec-07 10:00N 38°22' W 009°47'918.2
2017-Dec-07 09:30N 38°13' W 009°44'1019.7
2017-Dec-07 09:00N 38°03' W 009°41'1019.7
2017-Dec-07 08:30N 37°54' W 009°39'1019.6
2017-Dec-07 08:00N 37°44' W 009°35'1019.6
2017-Dec-07 07:30N 37°35' W 009°33'5319.3
2017-Dec-07 04:44N 36°45' W 009°08'  
Track history (hours):
 
Tides and Currents Weather Stations Pressure Air Temp Water Temp Dewpoint Dewpoint Depression Visibility Wind Speed Wind Dir Waves Ship Positions

MSC Viviana

Last reported at 2017-Dec-17 04:00 UTC. Time now 2017-Dec-17 04:28 UTC.
Position N 52°01' E 003°56'.

Length 400 m; draft 13.3 m.

Type: Cargo ship. MMSI: 636017882.

Date/timePositionNaut miles runAvg speedWind from/ knotsBaromVisibWave heightAir tempDewpointWater temp
2017-Dec-17 04:00N 52°01' E 003°56'5 9.5
2017-Dec-17 03:30N 52°01' E 003°48'3 6.5
2017-Dec-17 03:00N 52°01' E 003°43'3 5.9
2017-Dec-17 02:30N 51°58' E 003°40'2 4.5
2017-Dec-17 02:00N 51°57' E 003°37'3 4.7
2017-Dec-17 01:23N 51°56' E 003°32'3 4.8
2017-Dec-17 00:49N 51°55' E 003°28'2 5.0
2017-Dec-17 00:29N 51°55' E 003°25'2 5.0
2017-Dec-17 00:00N 51°53' E 003°23'6 4.1
2017-Dec-16 22:38N 51°48' E 003°18'1 4.7
2017-Dec-16 22:28N 51°48' E 003°18'4 5.1
2017-Dec-16 21:41N 51°44' E 003°15'2 5.1
2017-Dec-16 21:21N 51°42' E 003°14'2 4.6
2017-Dec-16 21:00N 51°41' E 003°13'510.3
2017-Dec-16 20:30N 51°36' E 003°10'510.9
2017-Dec-16 20:00N 51°31' E 003°06'611.6
2017-Dec-16 19:30N 51°27' E 002°60'4 7.4
2017-Dec-16 19:00N 51°24' E 003°04'611.9
2017-Dec-16 18:30N 51°25' E 003°14'612.5
2017-Dec-16 18:00N 51°25' E 003°24'611.8
2017-Dec-16 17:30N 51°25' E 003°33'4 7.5
2017-Dec-16 17:00N 51°26' E 003°39'611.5
2017-Dec-16 16:30N 51°22' E 003°45'612.5
2017-Dec-16 16:00N 51°22' E 003°55'510.8
2017-Dec-16 15:30N 51°26' E 004°01'510.1
2017-Dec-16 15:00N 51°22' E 004°07'4 7.8
2017-Dec-16 14:30N 51°22' E 004°13'3 6.6
2017-Dec-16 14:00N 51°19' E 004°16'1 3.0
2017-Dec-16 13:31N 51°18' E 004°16'0 0.9
2017-Dec-16 12:59N 51°17' E 004°15'0 0.0
2017-Dec-16 12:29N 51°17' E 004°15'0 0.0
2017-Dec-16 11:59N 51°17' E 004°15'0 0.0
2017-Dec-16 11:29N 51°17' E 004°15'0 0.0
2017-Dec-16 11:00N 51°17' E 004°15'0 0.0
2017-Dec-16 10:30N 51°17' E 004°15'0 0.0
2017-Dec-16 10:00N 51°17' E 004°15'0 0.0
2017-Dec-16 09:30N 51°17' E 004°15'0 0.0
2017-Dec-16 09:00N 51°17' E 004°15'0 0.0
2017-Dec-16 08:30N 51°17' E 004°15'0 0.0
2017-Dec-16 08:00N 51°17' E 004°15'0 0.0
2017-Dec-16 07:30N 51°17' E 004°15'0 0.0
2017-Dec-16 07:00N 51°17' E 004°15'0 0.0
2017-Dec-16 06:30N 51°17' E 004°15'0 0.0
2017-Dec-16 06:00N 51°17' E 004°15'0 0.0
2017-Dec-16 05:30N 51°17' E 004°15'0 0.0
2017-Dec-16 05:00N 51°17' E 004°15'0 0.0
2017-Dec-16 04:30N 51°17' E 004°15'0 0.0
2017-Dec-16 04:00N 51°17' E 004°15'0 0.0
2017-Dec-16 03:30N 51°17' E 004°15'0 0.0
2017-Dec-16 03:00N 51°17' E 004°15'0 0.0
2017-Dec-16 02:30N 51°17' E 004°15'0 0.0
2017-Dec-16 02:00N 51°17' E 004°15'0 0.0
2017-Dec-16 01:30N 51°17' E 004°15'0 0.0
2017-Dec-16 01:00N 51°17' E 004°15'0 0.0
2017-Dec-16 00:30N 51°17' E 004°15'0 0.0
2017-Dec-16 00:00N 51°17' E 004°15'0 0.0
2017-Dec-15 23:30N 51°17' E 004°15'0 0.0
2017-Dec-15 23:00N 51°17' E 004°15'0 0.0
2017-Dec-15 22:30N 51°17' E 004°15'0 0.0
2017-Dec-15 22:00N 51°17' E 004°15'0 0.0
2017-Dec-15 21:30N 51°17' E 004°15'0 0.0
2017-Dec-15 21:00N 51°17' E 004°15'0 0.0
2017-Dec-15 20:30N 51°17' E 004°15'0 0.0
2017-Dec-15 20:00N 51°17' E 004°15'0 0.0
2017-Dec-15 19:30N 51°17' E 004°15'0 0.0
2017-Dec-15 19:00N 51°17' E 004°15'0 0.0
2017-Dec-15 18:30N 51°17' E 004°15'0 0.0
2017-Dec-15 18:00N 51°17' E 004°15'0 0.0
2017-Dec-15 17:30N 51°17' E 004°15'0 0.0
2017-Dec-15 17:00N 51°17' E 004°15'0 0.0
2017-Dec-15 16:30N 51°17' E 004°15'0 0.0
2017-Dec-15 16:00N 51°17' E 004°15'0 0.0
2017-Dec-15 15:30N 51°17' E 004°15'0 0.0
2017-Dec-15 15:00N 51°17' E 004°15'0 0.0
2017-Dec-15 14:30N 51°17' E 004°15'0 0.0
2017-Dec-15 14:00N 51°17' E 004°15'0 0.0
2017-Dec-15 13:30N 51°17' E 004°15'0 0.0
2017-Dec-15 13:00N 51°17' E 004°15'0 0.0
2017-Dec-15 12:30N 51°17' E 004°15'0 0.0
2017-Dec-15 12:00N 51°17' E 004°15'0 0.0
2017-Dec-15 11:30N 51°17' E 004°15'0 0.0
2017-Dec-15 11:00N 51°17' E 004°15'0 0.0
2017-Dec-15 10:30N 51°17' E 004°15'0 0.0
2017-Dec-15 10:00N 51°17' E 004°15'0 0.0
2017-Dec-15 09:30N 51°17' E 004°15'0 0.0
2017-Dec-15 09:00N 51°17' E 004°15'0 0.0
2017-Dec-15 08:30N 51°17' E 004°15'0 0.0
2017-Dec-15 08:00N 51°17' E 004°15'0 0.0
2017-Dec-15 07:30N 51°17' E 004°15'0 0.0
2017-Dec-15 07:00N 51°17' E 004°15'0 0.0
2017-Dec-15 06:30N 51°17' E 004°15'0 0.0
2017-Dec-15 06:00N 51°17' E 004°15'0 0.0
2017-Dec-15 05:30N 51°17' E 004°15'0 0.0
2017-Dec-15 05:00N 51°17' E 004°15'0 0.0
2017-Dec-15 04:30N 51°17' E 004°15'0 0.0
2017-Dec-15 04:00N 51°17' E 004°15'0 0.0
2017-Dec-15 02:30N 51°17' E 004°15'0 0.0
2017-Dec-15 01:00N 51°17' E 004°15'0 0.0
2017-Dec-15 00:30N 51°17' E 004°15'0 0.0
2017-Dec-14 18:30N 51°17' E 004°15'0 0.0
2017-Dec-14 18:00N 51°17' E 004°15'0 0.0
2017-Dec-14 17:30N 51°17' E 004°15'0 0.0
2017-Dec-14 17:00N 51°17' E 004°15'0 0.0
2017-Dec-14 16:30N 51°17' E 004°15'0 0.0
2017-Dec-14 16:00N 51°17' E 004°15'0 0.0
2017-Dec-14 15:00N 51°17' E 004°15'0 0.0
2017-Dec-14 14:30N 51°17' E 004°15'0 0.0
2017-Dec-14 14:00N 51°17' E 004°15'0 0.0
2017-Dec-14 13:30N 51°17' E 004°15'0 0.0
2017-Dec-14 13:00N 51°17' E 004°15'0 0.0
2017-Dec-14 12:30N 51°17' E 004°15'0 0.0
2017-Dec-14 12:00N 51°17' E 004°15'0 0.0
2017-Dec-14 11:30N 51°17' E 004°15'0 0.0
2017-Dec-14 11:00N 51°17' E 004°15'0 0.0
2017-Dec-14 10:30N 51°17' E 004°15'0 0.0
2017-Dec-14 10:00N 51°17' E 004°15'0 0.0
2017-Dec-14 09:30N 51°17' E 004°15'0 0.0
2017-Dec-14 09:00N 51°17' E 004°15'0 0.0
2017-Dec-14 08:30N 51°17' E 004°15'0 0.0
2017-Dec-14 08:00N 51°17' E 004°15'0 0.0
2017-Dec-14 07:30N 51°17' E 004°15'0 0.0
2017-Dec-14 07:00N 51°17' E 004°15'0 0.0
2017-Dec-14 06:30N 51°17' E 004°15'0 0.0
2017-Dec-14 06:00N 51°17' E 004°15'0 0.0
2017-Dec-14 05:30N 51°17' E 004°15'0 0.0
2017-Dec-14 05:00N 51°17' E 004°15'0 0.5
2017-Dec-14 04:30N 51°17' E 004°16'2 4.3
2017-Dec-14 04:00N 51°20' E 004°16'4 9.0
2017-Dec-14 03:30N 51°23' E 004°13'510.8
2017-Dec-14 03:00N 51°22' E 004°04'5 9.9
2017-Dec-14 02:30N 51°26' E 003°59'510.2
2017-Dec-14 02:00N 51°22' E 003°54'5 9.9
2017-Dec-14 01:30N 51°21' E 003°47'5 9.8
2017-Dec-14 01:00N 51°25' E 003°42'4 8.7
2017-Dec-14 00:30N 51°26' E 003°35'3 6.5
2017-Dec-14 00:00N 51°25' E 003°30'611.5
2017-Dec-13 23:30N 51°24' E 003°21'815.2
2017-Dec-13 23:00N 51°24' E 003°09'612.3
2017-Dec-13 22:30N 51°25' E 002°59'510.9
2017-Dec-13 22:01N 51°25' E 002°50'611.6
2017-Dec-13 21:27N 51°22' E 002°42'7 7.9
2017-Dec-13 20:33N 51°22' E 002°30'0 8.0
2017-Dec-13 20:30N 51°22' E 002°30'4 8.4
2017-Dec-13 20:01N 51°20' E 002°23'4 8.4
2017-Dec-13 19:31N 51°19' E 002°17'4 8.9
2017-Dec-13 19:00N 51°19' E 002°10'4 8.0
2017-Dec-13 18:30N 51°21' E 002°04'5 9.4
2017-Dec-13 18:01N 51°25' E 001°59'4 8.2
2017-Dec-13 17:30N 51°28' E 001°55'4 7.8
2017-Dec-13 17:00N 51°30' E 001°50'4 7.7
2017-Dec-13 16:30N 51°34' E 001°47'2 3.4
2017-Dec-13 16:00N 51°35' E 001°47'1 1.2
2017-Dec-13 15:31N 51°35' E 001°47'1 1.4
2017-Dec-13 15:01N 51°35' E 001°46'1 1.5
2017-Dec-13 14:30N 51°34' E 001°45'1 1.4
2017-Dec-13 14:01N 51°33' E 001°45'1 2.2
2017-Dec-13 13:30N 51°34' E 001°46'1 2.9
2017-Dec-13 13:01N 51°35' E 001°48'2 3.3
2017-Dec-13 12:30N 51°36' E 001°49'1 2.2
2017-Dec-13 12:01N 51°38' E 001°49'2 3.3
2017-Dec-13 11:30N 51°36' E 001°47'2 3.3
2017-Dec-13 11:00N 51°35' E 001°45'1 1.6
2017-Dec-13 10:31N 51°35' E 001°44'1 2.6
2017-Dec-13 10:00N 51°35' E 001°46'1 2.7
2017-Dec-13 09:30N 51°36' E 001°48'1 2.6
2017-Dec-13 09:00N 51°36' E 001°50'2 3.0
2017-Dec-13 08:31N 51°37' E 001°52'1 1.6
2017-Dec-13 08:01N 51°36' E 001°52'1 2.0
2017-Dec-13 07:30N 51°36' E 001°50'1 2.0
2017-Dec-13 07:01N 51°35' E 001°49'1 2.0
2017-Dec-13 06:30N 51°34' E 001°48'1 2.2
2017-Dec-13 06:01N 51°34' E 001°47'0 0.5
2017-Dec-13 05:30N 51°34' E 001°47'1 2.5
2017-Dec-13 05:00N 51°35' E 001°48'1 2.3
2017-Dec-13 04:31N 51°36' E 001°49'1 2.4
2017-Dec-13 04:00N 51°37' E 001°49'1 1.3
2017-Dec-13 03:31N 51°37' E 001°48'1 2.1
2017-Dec-13 03:00N 51°36' E 001°48'1 2.1
2017-Dec-13 02:30N 51°35' E 001°47'1 2.1
2017-Dec-13 02:00N 51°34' E 001°47'1 2.5
2017-Dec-13 01:30N 51°35' E 001°46'3 5.0
2017-Dec-13 01:00N 51°38' E 001°45'2 4.4
2017-Dec-13 00:30N 51°40' E 001°45'2 4.5
2017-Dec-13 00:01N 51°42' E 001°45'2 4.7
2017-Dec-12 23:30N 51°44' E 001°44'2 4.8
2017-Dec-12 23:01N 51°47' E 001°44'3 5.1
2017-Dec-12 22:30N 51°49' E 001°43'3 5.2
2017-Dec-12 22:00N 51°51' E 001°40'3 6.1
2017-Dec-12 21:30N 51°51' E 001°36'4 8.7
2017-Dec-12 21:01N 51°56' E 001°33'713.4
2017-Dec-12 20:30N 51°56' E 001°22'3 4.8
2017-Dec-12 19:59N 51°57' E 001°19'0 0.5
2017-Dec-12 19:30N 51°57' E 001°19'0 0.0
2017-Dec-12 19:00N 51°57' E 001°19'0 0.0
2017-Dec-12 18:30N 51°57' E 001°19'0 0.0
2017-Dec-12 18:00N 51°57' E 001°19'0 0.0
2017-Dec-12 17:29N 51°57' E 001°19'0 0.0
2017-Dec-12 16:59N 51°57' E 001°19'0 0.0
2017-Dec-12 16:29N 51°57' E 001°19'0 0.0
2017-Dec-12 15:59N 51°57' E 001°19'0 0.0
2017-Dec-12 15:30N 51°57' E 001°19'0 0.0
2017-Dec-12 14:59N 51°57' E 001°19'0 0.0
2017-Dec-12 14:29N 51°57' E 001°19'0 0.0
2017-Dec-12 13:59N 51°57' E 001°19'0 0.0
2017-Dec-12 13:29N 51°57' E 001°19'0 0.0
2017-Dec-12 13:00N 51°57' E 001°19'0 0.0
2017-Dec-12 12:29N 51°57' E 001°19'0 0.0
2017-Dec-12 11:59N 51°57' E 001°19'0 0.0
2017-Dec-12 11:29N 51°57' E 001°19'0 0.0
2017-Dec-12 10:59N 51°57' E 001°19'0 0.0
2017-Dec-12 10:30N 51°57' E 001°19'0 0.0
2017-Dec-12 09:59N 51°57' E 001°19'0 0.0
2017-Dec-12 09:29N 51°57' E 001°19'0 0.0
2017-Dec-12 09:00N 51°57' E 001°19'0 0.0
2017-Dec-12 08:29N 51°57' E 001°19'0 0.0
2017-Dec-12 07:59N 51°57' E 001°19'0 0.0
2017-Dec-12 07:29N 51°57' E 001°19'0 0.0
2017-Dec-12 06:59N 51°57' E 001°19'0 0.0
2017-Dec-12 06:29N 51°57' E 001°19'0 0.0
2017-Dec-12 05:59N 51°57' E 001°19'0 0.0
2017-Dec-12 05:29N 51°57' E 001°19'0 0.0
2017-Dec-12 04:59N 51°57' E 001°19'0 0.0
2017-Dec-12 04:29N 51°57' E 001°19'0 0.0
2017-Dec-12 03:59N 51°57' E 001°19'0 0.0
2017-Dec-12 03:29N 51°57' E 001°19'0 0.0
2017-Dec-12 02:59N 51°57' E 001°19'0 0.0
2017-Dec-12 02:29N 51°57' E 001°19'0 0.0
2017-Dec-12 01:59N 51°57' E 001°19'0 0.0
2017-Dec-12 01:29N 51°57' E 001°19'0 0.0
2017-Dec-12 00:59N 51°57' E 001°19'0 0.0
2017-Dec-12 00:29N 51°57' E 001°19'0 0.0
2017-Dec-11 23:59N 51°57' E 001°19'0 0.0
2017-Dec-11 23:29N 51°57' E 001°19'0 0.0
2017-Dec-11 22:59N 51°57' E 001°19'0 0.0
2017-Dec-11 22:29N 51°57' E 001°19'0 0.0
2017-Dec-11 21:59N 51°57' E 001°19'0 0.0
2017-Dec-11 21:29N 51°57' E 001°19'0 0.0
2017-Dec-11 20:59N 51°57' E 001°19'0 0.0
2017-Dec-11 20:29N 51°57' E 001°19'0 0.0
2017-Dec-11 19:59N 51°57' E 001°19'0 0.0
2017-Dec-11 19:29N 51°57' E 001°19'0 0.0
2017-Dec-11 18:59N 51°57' E 001°19'0 0.0
2017-Dec-11 18:29N 51°57' E 001°19'0 0.0
2017-Dec-11 17:59N 51°57' E 001°19'0 0.0
2017-Dec-11 17:29N 51°57' E 001°19'0 0.0
2017-Dec-11 16:59N 51°57' E 001°19'0 0.0
2017-Dec-11 16:29N 51°57' E 001°19'0 0.0
2017-Dec-11 15:59N 51°57' E 001°19'0 0.0
2017-Dec-11 15:29N 51°57' E 001°19'0 0.0
2017-Dec-11 14:59N 51°57' E 001°19'0 0.0
2017-Dec-11 14:29N 51°57' E 001°19'0 0.0
2017-Dec-11 13:59N 51°57' E 001°19'0 0.0
2017-Dec-11 13:29N 51°57' E 001°19'0 0.0
2017-Dec-11 12:59N 51°57' E 001°19'0 0.0
2017-Dec-11 12:29N 51°57' E 001°19'0 0.0
2017-Dec-11 11:59N 51°57' E 001°19'0 0.0
2017-Dec-11 11:29N 51°57' E 001°19'0 0.0
2017-Dec-11 10:59N 51°57' E 001°19'0 0.0
2017-Dec-11 10:29N 51°57' E 001°19'0 0.0
2017-Dec-11 09:59N 51°57' E 001°19'0 0.0
2017-Dec-11 09:29N 51°57' E 001°19'0 0.0
2017-Dec-11 08:59N 51°57' E 001°19'0 0.0
2017-Dec-11 08:29N 51°57' E 001°19'0 0.0
2017-Dec-11 07:59N 51°57' E 001°19'0 0.0
2017-Dec-11 07:29N 51°57' E 001°19'0 0.0
2017-Dec-11 06:59N 51°57' E 001°19'0 0.0
2017-Dec-11 06:29N 51°57' E 001°19'0 0.0
2017-Dec-11 05:59N 51°57' E 001°19'0 0.0
2017-Dec-11 05:29N 51°57' E 001°19'0 0.0
2017-Dec-11 04:59N 51°57' E 001°19'0 0.0
2017-Dec-11 04:29N 51°57' E 001°19'0 0.0
2017-Dec-11 03:59N 51°57' E 001°19'0 0.0
2017-Dec-11 03:30N 51°57' E 001°19'0 0.0
2017-Dec-11 03:00N 51°57' E 001°19'0 0.0
2017-Dec-11 02:31N 51°57' E 001°19'0 0.0
2017-Dec-11 02:01N 51°57' E 001°19'0 0.0
2017-Dec-11 01:30N 51°57' E 001°19'0 0.0
2017-Dec-11 01:01N 51°57' E 001°19'0 0.0
2017-Dec-11 00:31N 51°57' E 001°19'0 0.0
2017-Dec-11 00:01N 51°57' E 001°19'0 0.0
2017-Dec-10 23:31N 51°57' E 001°19'0 0.0
2017-Dec-10 23:00N 51°57' E 001°19'0 0.0
2017-Dec-10 22:30N 51°57' E 001°19'0 0.0
2017-Dec-10 22:01N 51°57' E 001°19'0 0.3
2017-Dec-10 21:31N 51°57' E 001°19'1 2.1
2017-Dec-10 21:00N 51°56' E 001°19'611.5
2017-Dec-10 20:31N 51°56' E 001°28'510.0
2017-Dec-10 20:01N 51°52' E 001°34'611.6
2017-Dec-10 19:30N 51°50' E 001°42'2 4.1
2017-Dec-10 19:01N 51°52' E 001°42'3 5.9
2017-Dec-10 18:30N 51°55' E 001°45'4 8.8
2017-Dec-10 18:01N 51°58' E 001°49'2 3.4
2017-Dec-10 17:31N 51°57' E 001°49'2 3.7
2017-Dec-10 17:00N 51°55' E 001°49'2 3.2
2017-Dec-10 16:30N 51°53' E 001°48'2 3.2
2017-Dec-10 16:00N 51°52' E 001°48'2 3.5
2017-Dec-10 15:31N 51°50' E 001°48'2 3.6
2017-Dec-10 15:01N 51°48' E 001°48'2 3.9
2017-Dec-10 14:30N 51°46' E 001°48'2 4.5
2017-Dec-10 14:00N 51°44' E 001°48'4 7.5
2017-Dec-10 13:30N 51°40' E 001°49'2 4.8
2017-Dec-10 13:00N 51°38' E 001°47'3 6.6
2017-Dec-10 12:30N 51°41' E 001°46'3 6.2
2017-Dec-10 12:00N 51°44' E 001°45'3 6.5
2017-Dec-10 11:30N 51°47' E 001°45'3 6.1
2017-Dec-10 11:01N 51°50' E 001°44'2 4.3
2017-Dec-10 10:31N 51°52' E 001°47'4 7.3
2017-Dec-10 10:01N 51°48' E 001°48'3 6.7
2017-Dec-10 09:30N 51°45' E 001°48'4 7.3
2017-Dec-10 09:00N 51°41' E 001°48'4 7.8
2017-Dec-10 08:30N 51°37' E 001°49'4 8.2
2017-Dec-10 08:00N 51°33' E 001°51'4 8.2
2017-Dec-10 07:31N 51°30' E 001°55'5 9.7
2017-Dec-10 07:00N 51°26' E 001°59'5 9.4
2017-Dec-10 06:31N 51°21' E 001°58'612.1
2017-Dec-10 06:00N 51°16' E 001°53'815.0
2017-Dec-10 05:30N 51°10' E 001°45'1020.2
2017-Dec-10 05:01N 51°03' E 001°35'1019.6
2017-Dec-10 04:30N 50°55' E 001°26'1019.4
2017-Dec-10 03:58N 50°45' E 001°22'1117.8
2017-Dec-10 03:20N 50°36' E 001°11'618.8
2017-Dec-10 03:00N 50°33' E 001°02'918.7
2017-Dec-10 02:30N 50°29' E 000°49'1019.1
2017-Dec-10 01:59N 50°27' E 000°34'919.5
2017-Dec-10 01:30N 50°24' E 000°20'1019.8
2017-Dec-10 01:01N 50°22' E 000°05'1019.7
2017-Dec-10 00:30N 50°19' W 000°10'1019.9
2017-Dec-10 00:00N 50°15' W 000°25'1115.7
2017-Dec-09 23:19N 50°11' W 000°41'413.4
2017-Dec-09 23:00N 50°10' W 000°47'4910.6
2017-Dec-09 18:24N 49°58' W 002°00'4 8.5
2017-Dec-09 17:54N 49°56' W 002°06'12 9.2
2017-Dec-09 16:35N 49°53' W 002°25'110.2
2017-Dec-09 16:30N 49°53' W 002°26'510.5
2017-Dec-09 16:01N 49°52' W 002°34'510.9
2017-Dec-09 15:30N 49°51' W 002°42'611.2
2017-Dec-09 15:00N 49°49' W 002°50'611.5
2017-Dec-09 14:30N 49°47' W 002°59'611.8
2017-Dec-09 14:00N 49°44' W 003°06'612.0
2017-Dec-09 13:30N 49°41' W 003°14'8212.6
2017-Dec-09 06:59N 48°59' W 005°03'714.2
2017-Dec-09 06:30N 48°55' W 005°12'713.9
2017-Dec-09 06:00N 48°52' W 005°21'713.9
2017-Dec-09 05:30N 48°48' W 005°30'1314.0
2017-Dec-09 04:34N 48°38' W 005°43'314.5
2017-Dec-09 04:24N 48°36' W 005°45'1015.0
2017-Dec-09 03:43N 48°27' W 005°52'814.6
2017-Dec-09 03:11N 48°20' W 005°57'414.2
2017-Dec-09 02:56N 48°17' W 005°59'52214.8
2017-Dec-07 15:37N 40°02' W 009°50'217.6
2017-Dec-07 15:30N 39°60' W 009°50'1117.8
2017-Dec-07 14:53N 39°49' W 009°49'718.0
2017-Dec-07 14:30N 39°42' W 009°49'918.0
2017-Dec-07 13:59N 39°33' W 009°49'917.8
2017-Dec-07 13:30N 39°24' W 009°50'918.1
2017-Dec-07 13:00N 39°15' W 009°51'918.2
2017-Dec-07 12:30N 39°06' W 009°50'918.0
2017-Dec-07 12:00N 38°57' W 009°51'918.0
2017-Dec-07 11:30N 38°48' W 009°51'918.0
2017-Dec-07 11:00N 38°39' W 009°51'917.5
2017-Dec-07 10:30N 38°30' W 009°49'917.5
2017-Dec-07 10:00N 38°22' W 009°47'918.2
2017-Dec-07 09:30N 38°13' W 009°44'1019.7
2017-Dec-07 09:00N 38°03' W 009°41'1019.7
2017-Dec-07 08:30N 37°54' W 009°39'1019.6
2017-Dec-07 08:00N 37°44' W 009°35'1019.6
2017-Dec-07 07:30N 37°35' W 009°33'5319.3
2017-Dec-07 04:44N 36°45' W 009°08'  

Dump ship's entire track history